sensor_id;sensor_type;location;lat;lon;timestamp;P1;durP1;ratioP1;P2;durP2;ratioP2
66609;SDS011;53468;48.276;14.416;2022-11-20T00:02:13;36.10;;;14.57;;
66609;SDS011;53468;48.276;14.416;2022-11-20T00:07:46;33.78;;;15.82;;
66609;SDS011;53468;48.276;14.416;2022-11-20T00:13:20;35.47;;;16.83;;
66609;SDS011;53468;48.276;14.416;2022-11-20T00:18:52;33.47;;;14.32;;
66609;SDS011;53468;48.276;14.416;2022-11-20T00:24:25;30.65;;;16.65;;
66609;SDS011;53468;48.276;14.416;2022-11-20T00:29:58;35.53;;;15.45;;
66609;SDS011;53468;48.276;14.416;2022-11-20T00:35:30;33.85;;;16.48;;
66609;SDS011;53468;48.276;14.416;2022-11-20T00:41:03;40.40;;;17.65;;
66609;SDS011;53468;48.276;14.416;2022-11-20T00:46:38;30.08;;;12.90;;
66609;SDS011;53468;48.276;14.416;2022-11-20T00:52:10;39.08;;;17.45;;
66609;SDS011;53468;48.276;14.416;2022-11-20T00:57:42;39.67;;;17.40;;
66609;SDS011;53468;48.276;14.416;2022-11-20T01:03:16;41.13;;;18.08;;
66609;SDS011;53468;48.276;14.416;2022-11-20T01:08:49;36.10;;;16.45;;
66609;SDS011;53468;48.276;14.416;2022-11-20T01:14:24;38.17;;;17.05;;
66609;SDS011;53468;48.276;14.416;2022-11-20T01:19:59;30.73;;;14.73;;
66609;SDS011;53468;48.276;14.416;2022-11-20T01:25:31;38.72;;;16.38;;
66609;SDS011;53468;48.276;14.416;2022-11-20T01:31:10;33.30;;;16.55;;
66609;SDS011;53468;48.276;14.416;2022-11-20T01:36:46;33.20;;;15.82;;
66609;SDS011;53468;48.276;14.416;2022-11-20T01:42:18;34.55;;;15.75;;
66609;SDS011;53468;48.276;14.416;2022-11-20T01:48:07;34.47;;;16.35;;
66609;SDS011;53468;48.276;14.416;2022-11-20T01:53:41;38.50;;;16.30;;
66609;SDS011;53468;48.276;14.416;2022-11-20T01:59:15;34.72;;;15.82;;
66609;SDS011;53468;48.276;14.416;2022-11-20T02:04:50;37.88;;;16.85;;
66609;SDS011;53468;48.276;14.416;2022-11-20T02:10:28;36.67;;;17.10;;
66609;SDS011;53468;48.276;14.416;2022-11-20T02:16:02;36.00;;;15.80;;
66609;SDS011;53468;48.276;14.416;2022-11-20T02:21:36;38.08;;;17.00;;
66609;SDS011;53468;48.276;14.416;2022-11-20T02:27:14;39.38;;;17.00;;
66609;SDS011;53468;48.276;14.416;2022-11-20T02:32:48;36.05;;;17.20;;
66609;SDS011;53468;48.276;14.416;2022-11-20T02:38:20;40.53;;;17.70;;
66609;SDS011;53468;48.276;14.416;2022-11-20T02:43:55;34.00;;;15.60;;
66609;SDS011;53468;48.276;14.416;2022-11-20T02:49:27;33.60;;;15.38;;
66609;SDS011;53468;48.276;14.416;2022-11-20T02:54:59;33.53;;;15.60;;
66609;SDS011;53468;48.276;14.416;2022-11-20T03:00:33;34.85;;;16.08;;
66609;SDS011;53468;48.276;14.416;2022-11-20T03:06:06;34.97;;;16.33;;
66609;SDS011;53468;48.276;14.416;2022-11-20T03:11:39;35.80;;;17.00;;
66609;SDS011;53468;48.276;14.416;2022-11-20T03:17:12;35.88;;;16.65;;
66609;SDS011;53468;48.276;14.416;2022-11-20T03:22:44;34.97;;;16.23;;
66609;SDS011;53468;48.276;14.416;2022-11-20T03:28:16;37.72;;;16.65;;
66609;SDS011;53468;48.276;14.416;2022-11-20T03:33:50;33.30;;;16.20;;
66609;SDS011;53468;48.276;14.416;2022-11-20T03:39:23;34.25;;;17.48;;
66609;SDS011;53468;48.276;14.416;2022-11-20T03:44:55;38.13;;;18.52;;
66609;SDS011;53468;48.276;14.416;2022-11-20T03:50:28;41.22;;;18.73;;
66609;SDS011;53468;48.276;14.416;2022-11-20T03:56:00;36.10;;;17.40;;
66609;SDS011;53468;48.276;14.416;2022-11-20T04:01:33;34.17;;;16.15;;
66609;SDS011;53468;48.276;14.416;2022-11-20T04:07:08;34.75;;;16.98;;
66609;SDS011;53468;48.276;14.416;2022-11-20T04:12:40;40.15;;;15.27;;
66609;SDS011;53468;48.276;14.416;2022-11-20T04:18:12;34.60;;;16.63;;
66609;SDS011;53468;48.276;14.416;2022-11-20T04:23:46;28.38;;;13.95;;
66609;SDS011;53468;48.276;14.416;2022-11-20T04:29:18;41.75;;;17.40;;
66609;SDS011;53468;48.276;14.416;2022-11-20T04:34:50;31.70;;;15.20;;
66609;SDS011;53468;48.276;14.416;2022-11-20T04:40:24;38.50;;;15.82;;
66609;SDS011;53468;48.276;14.416;2022-11-20T04:45:56;41.60;;;17.33;;
66609;SDS011;53468;48.276;14.416;2022-11-20T04:51:29;38.80;;;17.75;;
66609;SDS011;53468;48.276;14.416;2022-11-20T04:57:04;39.05;;;16.67;;
66609;SDS011;53468;48.276;14.416;2022-11-20T05:02:36;39.83;;;17.15;;
66609;SDS011;53468;48.276;14.416;2022-11-20T05:08:08;43.00;;;18.33;;
66609;SDS011;53468;48.276;14.416;2022-11-20T05:13:42;43.65;;;18.60;;
66609;SDS011;53468;48.276;14.416;2022-11-20T05:19:15;38.50;;;17.10;;
66609;SDS011;53468;48.276;14.416;2022-11-20T05:24:47;36.60;;;17.77;;
66609;SDS011;53468;48.276;14.416;2022-11-20T05:30:21;43.22;;;19.95;;
66609;SDS011;53468;48.276;14.416;2022-11-20T05:35:53;35.83;;;17.23;;
66609;SDS011;53468;48.276;14.416;2022-11-20T05:41:29;37.28;;;16.00;;
66609;SDS011;53468;48.276;14.416;2022-11-20T05:47:03;35.25;;;16.05;;
66609;SDS011;53468;48.276;14.416;2022-11-20T05:52:35;35.60;;;18.23;;
66609;SDS011;53468;48.276;14.416;2022-11-20T05:58:29;35.63;;;16.10;;
66609;SDS011;53468;48.276;14.416;2022-11-20T06:04:03;39.38;;;16.90;;
66609;SDS011;53468;48.276;14.416;2022-11-20T06:09:35;37.78;;;17.65;;
66609;SDS011;53468;48.276;14.416;2022-11-20T06:15:07;38.90;;;17.98;;
66609;SDS011;53468;48.276;14.416;2022-11-20T06:20:42;38.60;;;19.67;;
66609;SDS011;53468;48.276;14.416;2022-11-20T06:26:14;41.28;;;16.50;;
66609;SDS011;53468;48.276;14.416;2022-11-20T06:31:47;32.78;;;15.93;;
66609;SDS011;53468;48.276;14.416;2022-11-20T06:37:21;30.92;;;15.80;;
66609;SDS011;53468;48.276;14.416;2022-11-20T06:42:53;38.47;;;16.85;;
66609;SDS011;53468;48.276;14.416;2022-11-20T06:48:26;31.85;;;16.38;;
66609;SDS011;53468;48.276;14.416;2022-11-20T06:54:00;33.88;;;15.57;;
66609;SDS011;53468;48.276;14.416;2022-11-20T06:59:32;35.13;;;15.80;;
66609;SDS011;53468;48.276;14.416;2022-11-20T07:05:04;34.88;;;15.77;;
66609;SDS011;53468;48.276;14.416;2022-11-20T07:10:38;31.40;;;15.35;;
66609;SDS011;53468;48.276;14.416;2022-11-20T07:16:10;35.25;;;15.07;;
66609;SDS011;53468;48.276;14.416;2022-11-20T07:21:43;37.65;;;16.80;;
66609;SDS011;53468;48.276;14.416;2022-11-20T07:27:16;31.45;;;16.98;;
66609;SDS011;53468;48.276;14.416;2022-11-20T07:32:50;34.38;;;15.57;;
66609;SDS011;53468;48.276;14.416;2022-11-20T07:38:22;30.02;;;15.45;;
66609;SDS011;53468;48.276;14.416;2022-11-20T07:43:56;35.05;;;15.48;;
66609;SDS011;53468;48.276;14.416;2022-11-20T07:49:28;33.50;;;14.50;;
66609;SDS011;53468;48.276;14.416;2022-11-20T07:55:00;32.95;;;14.52;;
66609;SDS011;53468;48.276;14.416;2022-11-20T08:00:34;33.25;;;16.33;;
66609;SDS011;53468;48.276;14.416;2022-11-20T08:06:06;34.53;;;16.20;;
66609;SDS011;53468;48.276;14.416;2022-11-20T08:11:41;32.80;;;15.48;;
66609;SDS011;53468;48.276;14.416;2022-11-20T08:30:38;31.40;;;15.23;;
66609;SDS011;53468;48.276;14.416;2022-11-20T08:36:32;37.73;;;17.30;;
66609;SDS011;53468;48.276;14.416;2022-11-20T08:48:41;34.05;;;17.02;;
66609;SDS011;53468;48.276;14.416;2022-11-20T09:26:41;29.70;;;14.52;;
66609;SDS011;53468;48.276;14.416;2022-11-20T09:32:13;27.23;;;14.40;;
66609;SDS011;53468;48.276;14.416;2022-11-20T09:37:45;26.35;;;13.65;;
66609;SDS011;53468;48.276;14.416;2022-11-20T09:43:19;32.33;;;14.68;;
66609;SDS011;53468;48.276;14.416;2022-11-20T09:48:59;24.65;;;13.63;;
66609;SDS011;53468;48.276;14.416;2022-11-20T09:54:46;26.67;;;12.50;;
66609;SDS011;53468;48.276;14.416;2022-11-20T10:00:25;31.27;;;16.08;;
66609;SDS011;53468;48.276;14.416;2022-11-20T10:06:02;32.58;;;14.93;;
66609;SDS011;53468;48.276;14.416;2022-11-20T10:11:41;55.13;;;22.20;;
66609;SDS011;53468;48.276;14.416;2022-11-20T10:17:24;51.30;;;22.10;;
66609;SDS011;53468;48.276;14.416;2022-11-20T10:23:13;63.75;;;23.20;;
66609;SDS011;53468;48.276;14.416;2022-11-20T10:29:01;86.97;;;30.80;;
66609;SDS011;53468;48.276;14.416;2022-11-20T10:34:44;89.72;;;33.25;;
66609;SDS011;53468;48.276;14.416;2022-11-20T10:40:23;91.90;;;36.85;;
66609;SDS011;53468;48.276;14.416;2022-11-20T10:46:03;97.95;;;33.92;;
66609;SDS011;53468;48.276;14.416;2022-11-20T10:51:43;107.45;;;35.05;;
66609;SDS011;53468;48.276;14.416;2022-11-20T10:57:34;103.05;;;37.13;;
66609;SDS011;53468;48.276;14.416;2022-11-20T11:03:24;68.53;;;27.42;;
66609;SDS011;53468;48.276;14.416;2022-11-20T11:09:04;69.90;;;27.70;;
66609;SDS011;53468;48.276;14.416;2022-11-20T11:14:43;61.72;;;26.42;;
66609;SDS011;53468;48.276;14.416;2022-11-20T11:20:20;68.28;;;28.55;;
66609;SDS011;53468;48.276;14.416;2022-11-20T11:25:57;66.28;;;26.42;;
66609;SDS011;53468;48.276;14.416;2022-11-20T11:31:31;53.55;;;24.80;;
66609;SDS011;53468;48.276;14.416;2022-11-20T11:37:10;54.80;;;24.10;;
66609;SDS011;53468;48.276;14.416;2022-11-20T11:42:54;47.83;;;23.13;;
66609;SDS011;53468;48.276;14.416;2022-11-20T11:48:29;51.05;;;21.00;;
66609;SDS011;53468;48.276;14.416;2022-11-20T11:54:02;42.88;;;20.50;;
66609;SDS011;53468;48.276;14.416;2022-11-20T11:59:49;43.42;;;20.08;;
66609;SDS011;53468;48.276;14.416;2022-11-20T12:05:34;40.47;;;19.20;;
66609;SDS011;53468;48.276;14.416;2022-11-20T12:11:14;39.97;;;20.90;;
66609;SDS011;53468;48.276;14.416;2022-11-20T12:17:03;35.88;;;18.60;;
66609;SDS011;53468;48.276;14.416;2022-11-20T12:22:40;37.33;;;18.70;;
66609;SDS011;53468;48.276;14.416;2022-11-20T12:28:32;35.97;;;18.00;;
66609;SDS011;53468;48.276;14.416;2022-11-20T12:34:30;37.72;;;18.10;;
66609;SDS011;53468;48.276;14.416;2022-11-20T12:40:23;41.15;;;19.00;;
66609;SDS011;53468;48.276;14.416;2022-11-20T12:46:08;36.47;;;17.67;;
66609;SDS011;53468;48.276;14.416;2022-11-20T12:58:04;39.47;;;18.52;;
66609;SDS011;53468;48.276;14.416;2022-11-20T13:03:42;36.20;;;17.48;;
66609;SDS011;53468;48.276;14.416;2022-11-20T13:09:21;36.80;;;17.48;;
66609;SDS011;53468;48.276;14.416;2022-11-20T13:14:58;38.30;;;17.52;;
66609;SDS011;53468;48.276;14.416;2022-11-20T13:20:36;40.77;;;17.73;;
66609;SDS011;53468;48.276;14.416;2022-11-20T13:26:15;38.33;;;18.00;;
66609;SDS011;53468;48.276;14.416;2022-11-20T13:31:50;38.58;;;17.55;;
66609;SDS011;53468;48.276;14.416;2022-11-20T13:37:27;36.58;;;18.52;;
66609;SDS011;53468;48.276;14.416;2022-11-20T13:43:04;43.00;;;18.65;;
66609;SDS011;53468;48.276;14.416;2022-11-20T13:48:47;46.28;;;19.55;;
66609;SDS011;53468;48.276;14.416;2022-11-20T13:54:27;35.60;;;16.83;;
66609;SDS011;53468;48.276;14.416;2022-11-20T14:00:22;37.05;;;17.27;;
66609;SDS011;53468;48.276;14.416;2022-11-20T14:05:58;38.60;;;18.20;;
66609;SDS011;53468;48.276;14.416;2022-11-20T14:11:33;34.92;;;17.83;;
66609;SDS011;53468;48.276;14.416;2022-11-20T14:17:05;38.20;;;19.50;;
66609;SDS011;53468;48.276;14.416;2022-11-20T14:22:47;40.58;;;19.67;;
66609;SDS011;53468;48.276;14.416;2022-11-20T14:28:22;34.40;;;17.97;;
66609;SDS011;53468;48.276;14.416;2022-11-20T14:33:57;38.75;;;17.63;;
66609;SDS011;53468;48.276;14.416;2022-11-20T14:39:32;38.25;;;16.70;;
66609;SDS011;53468;48.276;14.416;2022-11-20T14:45:07;35.60;;;17.25;;
66609;SDS011;53468;48.276;14.416;2022-11-20T14:50:45;37.13;;;17.75;;
66609;SDS011;53468;48.276;14.416;2022-11-20T14:56:22;40.42;;;18.75;;
66609;SDS011;53468;48.276;14.416;2022-11-20T15:01:56;41.75;;;19.48;;
66609;SDS011;53468;48.276;14.416;2022-11-20T15:07:30;40.30;;;18.35;;
66609;SDS011;53468;48.276;14.416;2022-11-20T15:13:06;42.47;;;18.13;;
66609;SDS011;53468;48.276;14.416;2022-11-20T15:18:43;47.40;;;20.85;;
66609;SDS011;53468;48.276;14.416;2022-11-20T15:24:16;44.63;;;19.42;;
66609;SDS011;53468;48.276;14.416;2022-11-20T15:29:51;39.15;;;18.98;;
66609;SDS011;53468;48.276;14.416;2022-11-20T15:35:23;38.63;;;19.13;;
66609;SDS011;53468;48.276;14.416;2022-11-20T15:40:56;43.55;;;21.58;;
66609;SDS011;53468;48.276;14.416;2022-11-20T15:46:30;42.00;;;18.08;;
66609;SDS011;53468;48.276;14.416;2022-11-20T15:52:08;39.55;;;20.05;;
66609;SDS011;53468;48.276;14.416;2022-11-20T15:57:40;42.25;;;19.42;;
66609;SDS011;53468;48.276;14.416;2022-11-20T16:03:15;36.38;;;18.23;;
66609;SDS011;53468;48.276;14.416;2022-11-20T16:08:48;40.67;;;18.98;;
66609;SDS011;53468;48.276;14.416;2022-11-20T16:14:23;37.00;;;18.30;;
66609;SDS011;53468;48.276;14.416;2022-11-20T16:20:15;42.65;;;20.77;;
66609;SDS011;53468;48.276;14.416;2022-11-20T16:25:48;43.28;;;21.90;;
66609;SDS011;53468;48.276;14.416;2022-11-20T17:30:36;42.58;;;21.17;;
66609;SDS011;53468;48.276;14.416;2022-11-20T18:40:16;43.63;;;20.65;;
66609;SDS011;53468;48.276;14.416;2022-11-20T18:46:02;40.35;;;19.85;;
66609;SDS011;53468;48.276;14.416;2022-11-20T18:51:37;40.33;;;19.23;;
66609;SDS011;53468;48.276;14.416;2022-11-20T18:57:57;32.65;;;17.42;;
66609;SDS011;53468;48.276;14.416;2022-11-20T19:03:57;36.00;;;18.60;;
66609;SDS011;53468;48.276;14.416;2022-11-20T19:09:36;32.25;;;16.40;;
66609;SDS011;53468;48.276;14.416;2022-11-20T19:16:00;34.90;;;17.92;;
66609;SDS011;53468;48.276;14.416;2022-11-20T19:48:04;34.92;;;15.43;;
66609;SDS011;53468;48.276;14.416;2022-11-20T20:07:25;28.88;;;14.00;;
66609;SDS011;53468;48.276;14.416;2022-11-20T20:13:12;29.00;;;14.48;;
66609;SDS011;53468;48.276;14.416;2022-11-20T20:32:27;32.50;;;15.80;;
66609;SDS011;53468;48.276;14.416;2022-11-20T20:38:23;28.17;;;14.27;;
66609;SDS011;53468;48.276;14.416;2022-11-20T20:50:57;32.17;;;14.63;;
66609;SDS011;53468;48.276;14.416;2022-11-20T20:56:45;30.43;;;12.80;;
66609;SDS011;53468;48.276;14.416;2022-11-20T21:02:32;35.67;;;14.73;;
66609;SDS011;53468;48.276;14.416;2022-11-20T21:08:09;25.35;;;13.85;;
66609;SDS011;53468;48.276;14.416;2022-11-20T21:13:58;24.55;;;13.00;;
66609;SDS011;53468;48.276;14.416;2022-11-20T21:19:44;23.08;;;12.95;;
66609;SDS011;53468;48.276;14.416;2022-11-20T21:25:30;21.45;;;11.75;;
66609;SDS011;53468;48.276;14.416;2022-11-20T21:31:07;24.50;;;12.13;;
66609;SDS011;53468;48.276;14.416;2022-11-20T21:36:40;24.05;;;12.75;;
66609;SDS011;53468;48.276;14.416;2022-11-20T21:42:15;22.83;;;12.27;;
66609;SDS011;53468;48.276;14.416;2022-11-20T21:47:48;18.98;;;10.95;;
66609;SDS011;53468;48.276;14.416;2022-11-20T21:53:21;23.35;;;13.55;;
66609;SDS011;53468;48.276;14.416;2022-11-20T21:59:09;25.23;;;11.90;;
66609;SDS011;53468;48.276;14.416;2022-11-20T22:05:17;31.33;;;13.75;;
66609;SDS011;53468;48.276;14.416;2022-11-20T22:10:59;20.05;;;11.82;;
66609;SDS011;53468;48.276;14.416;2022-11-20T22:50:23;16.67;;;7.60;;
66609;SDS011;53468;48.276;14.416;2022-11-20T22:55:55;14.43;;;6.82;;
66609;SDS011;53468;48.276;14.416;2022-11-20T23:01:28;21.05;;;7.55;;
66609;SDS011;53468;48.276;14.416;2022-11-20T23:07:14;13.20;;;7.75;;
66609;SDS011;53468;48.276;14.416;2022-11-20T23:13:25;15.88;;;8.95;;
66609;SDS011;53468;48.276;14.416;2022-11-20T23:19:34;26.77;;;9.68;;
66609;SDS011;53468;48.276;14.416;2022-11-20T23:38:14;16.65;;;8.52;;
66609;SDS011;53468;48.276;14.416;2022-11-20T23:44:05;19.67;;;9.02;;
66609;SDS011;53468;48.276;14.416;2022-11-20T23:50:24;17.77;;;8.52;;
